sensor_id;sensor_type;location;lat;lon;timestamp;P1;durP1;ratioP1;P2;durP2;ratioP2
50161;SDS011;36061;48.116;11.612;2023-01-23T00:00:16;17.03;;;9.40;;
50161;SDS011;36061;48.116;11.612;2023-01-23T00:02:44;15.20;;;9.03;;
50161;SDS011;36061;48.116;11.612;2023-01-23T00:05:11;20.80;;;9.83;;
50161;SDS011;36061;48.116;11.612;2023-01-23T00:07:38;17.97;;;9.03;;
50161;SDS011;36061;48.116;11.612;2023-01-23T00:10:08;13.97;;;7.50;;
50161;SDS011;36061;48.116;11.612;2023-01-23T00:12:37;17.37;;;9.30;;
50161;SDS011;36061;48.116;11.612;2023-01-23T00:15:07;14.53;;;9.47;;
50161;SDS011;36061;48.116;11.612;2023-01-23T00:17:35;14.43;;;8.20;;
50161;SDS011;36061;48.116;11.612;2023-01-23T00:20:02;15.47;;;8.53;;
50161;SDS011;36061;48.116;11.612;2023-01-23T00:22:30;19.23;;;8.87;;
50161;SDS011;36061;48.116;11.612;2023-01-23T00:24:57;17.07;;;9.00;;
50161;SDS011;36061;48.116;11.612;2023-01-23T00:27:25;18.93;;;9.43;;
50161;SDS011;36061;48.116;11.612;2023-01-23T00:29:53;16.37;;;8.33;;
50161;SDS011;36061;48.116;11.612;2023-01-23T00:32:21;15.83;;;8.63;;
50161;SDS011;36061;48.116;11.612;2023-01-23T00:34:48;14.87;;;8.33;;
50161;SDS011;36061;48.116;11.612;2023-01-23T00:37:16;14.40;;;7.70;;
50161;SDS011;36061;48.116;11.612;2023-01-23T00:39:43;18.07;;;8.83;;
50161;SDS011;36061;48.116;11.612;2023-01-23T00:42:10;14.97;;;8.07;;
50161;SDS011;36061;48.116;11.612;2023-01-23T00:44:39;13.10;;;7.50;;
50161;SDS011;36061;48.116;11.612;2023-01-23T00:47:06;14.97;;;8.33;;
50161;SDS011;36061;48.116;11.612;2023-01-23T00:49:34;12.70;;;7.80;;
50161;SDS011;36061;48.116;11.612;2023-01-23T00:52:01;15.17;;;8.13;;
50161;SDS011;36061;48.116;11.612;2023-01-23T00:54:28;17.07;;;9.07;;
50161;SDS011;36061;48.116;11.612;2023-01-23T00:56:56;14.10;;;8.30;;
50161;SDS011;36061;48.116;11.612;2023-01-23T00:59:23;15.37;;;7.80;;
50161;SDS011;36061;48.116;11.612;2023-01-23T01:01:51;20.27;;;8.67;;
50161;SDS011;36061;48.116;11.612;2023-01-23T01:04:19;15.33;;;9.07;;
50161;SDS011;36061;48.116;11.612;2023-01-23T01:06:46;18.67;;;9.83;;
50161;SDS011;36061;48.116;11.612;2023-01-23T01:09:14;15.93;;;8.00;;
50161;SDS011;36061;48.116;11.612;2023-01-23T01:11:43;15.17;;;8.33;;
50161;SDS011;36061;48.116;11.612;2023-01-23T01:14:10;18.37;;;8.80;;
50161;SDS011;36061;48.116;11.612;2023-01-23T01:16:37;14.17;;;7.80;;
50161;SDS011;36061;48.116;11.612;2023-01-23T01:19:10;17.27;;;9.03;;
50161;SDS011;36061;48.116;11.612;2023-01-23T01:21:38;21.00;;;9.17;;
50161;SDS011;36061;48.116;11.612;2023-01-23T01:24:06;18.20;;;9.20;;
50161;SDS011;36061;48.116;11.612;2023-01-23T01:26:34;18.27;;;9.80;;
50161;SDS011;36061;48.116;11.612;2023-01-23T01:29:02;17.23;;;9.57;;
50161;SDS011;36061;48.116;11.612;2023-01-23T01:31:29;14.07;;;8.33;;
50161;SDS011;36061;48.116;11.612;2023-01-23T01:33:57;20.47;;;9.13;;
50161;SDS011;36061;48.116;11.612;2023-01-23T01:36:25;18.53;;;9.63;;
50161;SDS011;36061;48.116;11.612;2023-01-23T01:38:52;15.50;;;8.43;;
50161;SDS011;36061;48.116;11.612;2023-01-23T01:41:20;18.07;;;9.77;;
50161;SDS011;36061;48.116;11.612;2023-01-23T01:43:47;16.60;;;7.73;;
50161;SDS011;36061;48.116;11.612;2023-01-23T01:46:16;18.53;;;9.07;;
50161;SDS011;36061;48.116;11.612;2023-01-23T01:48:51;18.43;;;10.37;;
50161;SDS011;36061;48.116;11.612;2023-01-23T01:51:32;17.53;;;8.87;;
50161;SDS011;36061;48.116;11.612;2023-01-23T01:54:05;18.65;;;9.48;;
50161;SDS011;36061;48.116;11.612;2023-01-23T01:56:38;17.77;;;9.30;;
50161;SDS011;36061;48.116;11.612;2023-01-23T01:59:08;16.60;;;9.30;;
50161;SDS011;36061;48.116;11.612;2023-01-23T02:01:36;16.93;;;9.80;;
50161;SDS011;36061;48.116;11.612;2023-01-23T02:04:05;18.47;;;9.60;;
50161;SDS011;36061;48.116;11.612;2023-01-23T02:06:35;17.43;;;9.80;;
50161;SDS011;36061;48.116;11.612;2023-01-23T02:09:04;16.97;;;9.33;;
50161;SDS011;36061;48.116;11.612;2023-01-23T02:11:36;23.00;;;10.27;;
50161;SDS011;36061;48.116;11.612;2023-01-23T02:14:03;19.33;;;10.80;;
50161;SDS011;36061;48.116;11.612;2023-01-23T02:16:32;26.17;;;10.73;;
50161;SDS011;36061;48.116;11.612;2023-01-23T02:19:07;19.03;;;9.07;;
50161;SDS011;36061;48.116;11.612;2023-01-23T02:21:56;19.47;;;9.67;;
50161;SDS011;36061;48.116;11.612;2023-01-23T02:24:30;19.40;;;9.30;;
50161;SDS011;36061;48.116;11.612;2023-01-23T02:27:06;15.00;;;9.07;;
50161;SDS011;36061;48.116;11.612;2023-01-23T02:29:40;16.67;;;9.77;;
50161;SDS011;36061;48.116;11.612;2023-01-23T02:32:08;17.17;;;9.63;;
50161;SDS011;36061;48.116;11.612;2023-01-23T02:34:36;19.87;;;11.10;;
50161;SDS011;36061;48.116;11.612;2023-01-23T02:37:04;20.00;;;10.00;;
50161;SDS011;36061;48.116;11.612;2023-01-23T02:39:33;23.93;;;10.00;;
50161;SDS011;36061;48.116;11.612;2023-01-23T02:42:01;20.63;;;10.83;;
50161;SDS011;36061;48.116;11.612;2023-01-23T02:44:42;22.40;;;10.20;;
50161;SDS011;36061;48.116;11.612;2023-01-23T02:47:11;19.50;;;10.10;;
50161;SDS011;36061;48.116;11.612;2023-01-23T02:49:40;17.70;;;9.43;;
50161;SDS011;36061;48.116;11.612;2023-01-23T02:52:09;21.37;;;9.87;;
50161;SDS011;36061;48.116;11.612;2023-01-23T02:54:36;16.03;;;9.40;;
50161;SDS011;36061;48.116;11.612;2023-01-23T02:57:04;18.83;;;9.70;;
50161;SDS011;36061;48.116;11.612;2023-01-23T02:59:32;23.20;;;11.90;;
50161;SDS011;36061;48.116;11.612;2023-01-23T03:02:19;18.03;;;10.10;;
50161;SDS011;36061;48.116;11.612;2023-01-23T03:04:47;23.13;;;11.33;;
50161;SDS011;36061;48.116;11.612;2023-01-23T03:07:14;21.30;;;10.07;;
50161;SDS011;36061;48.116;11.612;2023-01-23T03:09:41;19.73;;;11.10;;
50161;SDS011;36061;48.116;11.612;2023-01-23T03:12:12;16.63;;;9.53;;
50161;SDS011;36061;48.116;11.612;2023-01-23T03:14:40;22.67;;;10.93;;
50161;SDS011;36061;48.116;11.612;2023-01-23T03:17:07;20.63;;;9.37;;
50161;SDS011;36061;48.116;11.612;2023-01-23T03:19:37;21.67;;;11.00;;
50161;SDS011;36061;48.116;11.612;2023-01-23T03:22:04;20.37;;;10.67;;
50161;SDS011;36061;48.116;11.612;2023-01-23T03:24:32;19.57;;;10.00;;
50161;SDS011;36061;48.116;11.612;2023-01-23T03:27:00;21.47;;;10.50;;
50161;SDS011;36061;48.116;11.612;2023-01-23T03:29:34;22.00;;;9.93;;
50161;SDS011;36061;48.116;11.612;2023-01-23T03:32:18;20.73;;;11.27;;
50161;SDS011;36061;48.116;11.612;2023-01-23T03:34:48;16.83;;;8.17;;
50161;SDS011;36061;48.116;11.612;2023-01-23T03:37:16;17.43;;;9.50;;
50161;SDS011;36061;48.116;11.612;2023-01-23T03:39:45;15.87;;;8.70;;
50161;SDS011;36061;48.116;11.612;2023-01-23T03:42:32;18.47;;;9.67;;
50161;SDS011;36061;48.116;11.612;2023-01-23T03:45:01;18.07;;;10.07;;
50161;SDS011;36061;48.116;11.612;2023-01-23T03:47:31;16.93;;;8.60;;
50161;SDS011;36061;48.116;11.612;2023-01-23T03:50:00;19.10;;;9.93;;
50161;SDS011;36061;48.116;11.612;2023-01-23T03:52:33;17.60;;;8.70;;
50161;SDS011;36061;48.116;11.612;2023-01-23T03:55:02;19.10;;;10.37;;
50161;SDS011;36061;48.116;11.612;2023-01-23T03:57:30;19.70;;;9.90;;
50161;SDS011;36061;48.116;11.612;2023-01-23T04:00:05;16.10;;;8.77;;
50161;SDS011;36061;48.116;11.612;2023-01-23T04:02:39;18.57;;;9.50;;
50161;SDS011;36061;48.116;11.612;2023-01-23T04:05:10;18.53;;;9.77;;
50161;SDS011;36061;48.116;11.612;2023-01-23T04:07:37;15.77;;;9.53;;
50161;SDS011;36061;48.116;11.612;2023-01-23T04:10:05;21.40;;;11.17;;
50161;SDS011;36061;48.116;11.612;2023-01-23T04:12:33;19.00;;;10.70;;
50161;SDS011;36061;48.116;11.612;2023-01-23T04:15:00;17.80;;;9.23;;
50161;SDS011;36061;48.116;11.612;2023-01-23T04:17:27;20.97;;;11.10;;
50161;SDS011;36061;48.116;11.612;2023-01-23T04:19:55;18.93;;;9.90;;
50161;SDS011;36061;48.116;11.612;2023-01-23T04:22:23;18.37;;;9.70;;
50161;SDS011;36061;48.116;11.612;2023-01-23T04:24:50;19.30;;;8.83;;
50161;SDS011;36061;48.116;11.612;2023-01-23T04:27:18;16.37;;;9.63;;
50161;SDS011;36061;48.116;11.612;2023-01-23T04:29:45;20.03;;;10.20;;
50161;SDS011;36061;48.116;11.612;2023-01-23T04:32:13;18.20;;;9.77;;
50161;SDS011;36061;48.116;11.612;2023-01-23T04:34:44;18.33;;;10.37;;
50161;SDS011;36061;48.116;11.612;2023-01-23T04:37:11;19.43;;;9.90;;
50161;SDS011;36061;48.116;11.612;2023-01-23T04:39:40;19.30;;;11.10;;
50161;SDS011;36061;48.116;11.612;2023-01-23T04:42:08;19.30;;;10.67;;
50161;SDS011;36061;48.116;11.612;2023-01-23T04:44:56;18.27;;;9.53;;
50161;SDS011;36061;48.116;11.612;2023-01-23T04:47:32;19.33;;;10.47;;
50161;SDS011;36061;48.116;11.612;2023-01-23T04:50:01;15.80;;;8.57;;
50161;SDS011;36061;48.116;11.612;2023-01-23T04:52:32;19.03;;;9.63;;
50161;SDS011;36061;48.116;11.612;2023-01-23T04:55:00;18.43;;;10.53;;
50161;SDS011;36061;48.116;11.612;2023-01-23T04:57:27;18.40;;;8.97;;
50161;SDS011;36061;48.116;11.612;2023-01-23T05:00:03;16.10;;;9.13;;
50161;SDS011;36061;48.116;11.612;2023-01-23T05:02:31;16.83;;;9.90;;
50161;SDS011;36061;48.116;11.612;2023-01-23T05:04:59;23.47;;;10.20;;
50161;SDS011;36061;48.116;11.612;2023-01-23T05:07:26;18.27;;;9.10;;
50161;SDS011;36061;48.116;11.612;2023-01-23T05:10:06;17.40;;;9.57;;
50161;SDS011;36061;48.116;11.612;2023-01-23T05:12:35;17.73;;;8.50;;
50161;SDS011;36061;48.116;11.612;2023-01-23T05:15:03;15.47;;;9.47;;
50161;SDS011;36061;48.116;11.612;2023-01-23T05:17:35;18.63;;;10.40;;
50161;SDS011;36061;48.116;11.612;2023-01-23T05:20:02;21.07;;;9.87;;
50161;SDS011;36061;48.116;11.612;2023-01-23T05:22:30;18.73;;;9.33;;
50161;SDS011;36061;48.116;11.612;2023-01-23T05:24:58;18.13;;;10.57;;
50161;SDS011;36061;48.116;11.612;2023-01-23T05:27:29;17.77;;;10.20;;
50161;SDS011;36061;48.116;11.612;2023-01-23T05:29:58;18.67;;;10.10;;
50161;SDS011;36061;48.116;11.612;2023-01-23T05:32:29;17.33;;;9.03;;
50161;SDS011;36061;48.116;11.612;2023-01-23T05:35:17;17.67;;;10.57;;
50161;SDS011;36061;48.116;11.612;2023-01-23T05:37:47;16.83;;;9.63;;
50161;SDS011;36061;48.116;11.612;2023-01-23T05:40:19;18.23;;;9.40;;
50161;SDS011;36061;48.116;11.612;2023-01-23T05:43:15;15.93;;;8.97;;
50161;SDS011;36061;48.116;11.612;2023-01-23T05:46:11;15.13;;;7.83;;
50161;SDS011;36061;48.116;11.612;2023-01-23T05:48:47;15.07;;;8.90;;
50161;SDS011;36061;48.116;11.612;2023-01-23T05:51:15;17.63;;;9.17;;
50161;SDS011;36061;48.116;11.612;2023-01-23T05:53:43;19.07;;;9.43;;
50161;SDS011;36061;48.116;11.612;2023-01-23T05:56:11;18.37;;;9.27;;
50161;SDS011;36061;48.116;11.612;2023-01-23T05:58:56;17.73;;;9.43;;
50161;SDS011;36061;48.116;11.612;2023-01-23T06:01:34;16.53;;;9.07;;
50161;SDS011;36061;48.116;11.612;2023-01-23T06:04:20;17.47;;;9.80;;
50161;SDS011;36061;48.116;11.612;2023-01-23T06:07:26;16.70;;;9.33;;
50161;SDS011;36061;48.116;11.612;2023-01-23T06:09:56;16.73;;;9.47;;
50161;SDS011;36061;48.116;11.612;2023-01-23T06:12:23;18.67;;;9.90;;
50161;SDS011;36061;48.116;11.612;2023-01-23T06:14:52;18.53;;;10.10;;
50161;SDS011;36061;48.116;11.612;2023-01-23T06:17:19;14.93;;;9.27;;
50161;SDS011;36061;48.116;11.612;2023-01-23T06:19:46;19.25;;;10.68;;
50161;SDS011;36061;48.116;11.612;2023-01-23T06:22:14;16.03;;;9.33;;
50161;SDS011;36061;48.116;11.612;2023-01-23T06:24:57;17.33;;;9.37;;
50161;SDS011;36061;48.116;11.612;2023-01-23T06:27:25;14.57;;;8.80;;
50161;SDS011;36061;48.116;11.612;2023-01-23T06:29:53;17.40;;;9.00;;
50161;SDS011;36061;48.116;11.612;2023-01-23T06:32:21;15.90;;;9.53;;
50161;SDS011;36061;48.116;11.612;2023-01-23T06:34:49;16.27;;;9.37;;
50161;SDS011;36061;48.116;11.612;2023-01-23T06:37:17;19.47;;;9.17;;
50161;SDS011;36061;48.116;11.612;2023-01-23T06:39:44;17.00;;;10.73;;
50161;SDS011;36061;48.116;11.612;2023-01-23T06:42:13;18.90;;;9.90;;
50161;SDS011;36061;48.116;11.612;2023-01-23T06:44:45;17.70;;;9.93;;
50161;SDS011;36061;48.116;11.612;2023-01-23T06:47:14;20.50;;;10.60;;
50161;SDS011;36061;48.116;11.612;2023-01-23T06:49:49;24.53;;;11.80;;
50161;SDS011;36061;48.116;11.612;2023-01-23T06:52:16;21.97;;;11.43;;
50161;SDS011;36061;48.116;11.612;2023-01-23T06:54:45;26.47;;;12.90;;
50161;SDS011;36061;48.116;11.612;2023-01-23T06:57:13;24.53;;;11.27;;
50161;SDS011;36061;48.116;11.612;2023-01-23T06:59:41;23.17;;;12.63;;
50161;SDS011;36061;48.116;11.612;2023-01-23T07:02:11;25.27;;;12.40;;
50161;SDS011;36061;48.116;11.612;2023-01-23T07:04:48;30.17;;;13.83;;
50161;SDS011;36061;48.116;11.612;2023-01-23T07:07:15;27.83;;;12.97;;
50161;SDS011;36061;48.116;11.612;2023-01-23T07:09:44;27.80;;;13.07;;
50161;SDS011;36061;48.116;11.612;2023-01-23T07:12:23;34.80;;;15.43;;
50161;SDS011;36061;48.116;11.612;2023-01-23T07:14:50;31.23;;;12.50;;
50161;SDS011;36061;48.116;11.612;2023-01-23T07:17:23;32.53;;;13.17;;
50161;SDS011;36061;48.116;11.612;2023-01-23T07:19:51;25.20;;;10.67;;
50161;SDS011;36061;48.116;11.612;2023-01-23T07:22:20;33.33;;;13.37;;
50161;SDS011;36061;48.116;11.612;2023-01-23T07:24:48;31.63;;;13.13;;
50161;SDS011;36061;48.116;11.612;2023-01-23T07:27:15;39.33;;;16.50;;
50161;SDS011;36061;48.116;11.612;2023-01-23T07:29:42;33.30;;;13.67;;
50161;SDS011;36061;48.116;11.612;2023-01-23T07:32:09;29.23;;;13.13;;
50161;SDS011;36061;48.116;11.612;2023-01-23T07:34:37;32.30;;;13.30;;
50161;SDS011;36061;48.116;11.612;2023-01-23T07:37:05;29.97;;;13.30;;
50161;SDS011;36061;48.116;11.612;2023-01-23T07:39:32;30.50;;;13.83;;
50161;SDS011;36061;48.116;11.612;2023-01-23T07:42:00;30.13;;;13.00;;
50161;SDS011;36061;48.116;11.612;2023-01-23T07:44:27;32.43;;;13.70;;
50161;SDS011;36061;48.116;11.612;2023-01-23T07:46:55;28.80;;;14.20;;
50161;SDS011;36061;48.116;11.612;2023-01-23T07:49:22;41.07;;;12.33;;
50161;SDS011;36061;48.116;11.612;2023-01-23T07:51:49;31.57;;;13.70;;
50161;SDS011;36061;48.116;11.612;2023-01-23T07:54:18;26.50;;;13.17;;
50161;SDS011;36061;48.116;11.612;2023-01-23T07:56:47;34.20;;;12.37;;
50161;SDS011;36061;48.116;11.612;2023-01-23T07:59:15;32.03;;;13.67;;
50161;SDS011;36061;48.116;11.612;2023-01-23T08:01:42;31.53;;;13.07;;
50161;SDS011;36061;48.116;11.612;2023-01-23T08:04:10;33.37;;;13.83;;
50161;SDS011;36061;48.116;11.612;2023-01-23T08:06:37;37.93;;;13.00;;
50161;SDS011;36061;48.116;11.612;2023-01-23T08:09:04;35.93;;;12.73;;
50161;SDS011;36061;48.116;11.612;2023-01-23T08:11:33;27.37;;;13.27;;
50161;SDS011;36061;48.116;11.612;2023-01-23T08:14:00;28.20;;;11.90;;
50161;SDS011;36061;48.116;11.612;2023-01-23T08:16:28;33.80;;;13.73;;
50161;SDS011;36061;48.116;11.612;2023-01-23T08:18:55;37.93;;;14.53;;
50161;SDS011;36061;48.116;11.612;2023-01-23T08:21:22;30.17;;;12.20;;
50161;SDS011;36061;48.116;11.612;2023-01-23T08:23:50;28.17;;;11.50;;
50161;SDS011;36061;48.116;11.612;2023-01-23T08:26:17;24.50;;;12.60;;
50161;SDS011;36061;48.116;11.612;2023-01-23T08:28:46;26.47;;;12.23;;
50161;SDS011;36061;48.116;11.612;2023-01-23T08:31:13;31.50;;;13.07;;
50161;SDS011;36061;48.116;11.612;2023-01-23T08:33:40;28.03;;;11.10;;
50161;SDS011;36061;48.116;11.612;2023-01-23T08:36:09;22.63;;;10.63;;
50161;SDS011;36061;48.116;11.612;2023-01-23T08:38:38;19.80;;;9.20;;
50161;SDS011;36061;48.116;11.612;2023-01-23T08:41:05;25.03;;;11.23;;
50161;SDS011;36061;48.116;11.612;2023-01-23T08:43:34;25.27;;;10.27;;
50161;SDS011;36061;48.116;11.612;2023-01-23T08:46:02;23.23;;;10.10;;
50161;SDS011;36061;48.116;11.612;2023-01-23T08:48:30;21.73;;;9.77;;
50161;SDS011;36061;48.116;11.612;2023-01-23T08:50:59;19.23;;;9.27;;
50161;SDS011;36061;48.116;11.612;2023-01-23T08:53:28;22.53;;;10.70;;
50161;SDS011;36061;48.116;11.612;2023-01-23T08:55:59;17.03;;;9.80;;
50161;SDS011;36061;48.116;11.612;2023-01-23T08:58:26;19.70;;;9.43;;
50161;SDS011;36061;48.116;11.612;2023-01-23T09:00:54;21.10;;;9.70;;
50161;SDS011;36061;48.116;11.612;2023-01-23T09:03:22;19.73;;;9.33;;
50161;SDS011;36061;48.116;11.612;2023-01-23T09:05:50;25.90;;;10.83;;
50161;SDS011;36061;48.116;11.612;2023-01-23T09:08:17;21.27;;;9.57;;
50161;SDS011;36061;48.116;11.612;2023-01-23T09:10:44;21.47;;;10.47;;
50161;SDS011;36061;48.116;11.612;2023-01-23T09:13:11;19.00;;;10.67;;
50161;SDS011;36061;48.116;11.612;2023-01-23T09:15:39;19.93;;;10.17;;
50161;SDS011;36061;48.116;11.612;2023-01-23T09:18:06;26.37;;;12.97;;
50161;SDS011;36061;48.116;11.612;2023-01-23T09:20:35;19.53;;;9.40;;
50161;SDS011;36061;48.116;11.612;2023-01-23T09:23:03;23.30;;;11.37;;
50161;SDS011;36061;48.116;11.612;2023-01-23T09:25:30;20.83;;;11.17;;
50161;SDS011;36061;48.116;11.612;2023-01-23T09:27:58;20.87;;;10.10;;
50161;SDS011;36061;48.116;11.612;2023-01-23T09:30:25;22.00;;;10.57;;
50161;SDS011;36061;48.116;11.612;2023-01-23T09:32:52;21.93;;;11.37;;
50161;SDS011;36061;48.116;11.612;2023-01-23T09:35:19;24.97;;;12.93;;
50161;SDS011;36061;48.116;11.612;2023-01-23T09:37:49;21.60;;;10.70;;
50161;SDS011;36061;48.116;11.612;2023-01-23T09:40:26;22.77;;;11.20;;
50161;SDS011;36061;48.116;11.612;2023-01-23T09:42:56;18.40;;;9.20;;
50161;SDS011;36061;48.116;11.612;2023-01-23T09:45:27;23.27;;;10.87;;
50161;SDS011;36061;48.116;11.612;2023-01-23T09:47:58;18.53;;;9.90;;
50161;SDS011;36061;48.116;11.612;2023-01-23T09:50:36;22.57;;;11.97;;
50161;SDS011;36061;48.116;11.612;2023-01-23T09:53:10;17.90;;;9.63;;
50161;SDS011;36061;48.116;11.612;2023-01-23T09:55:39;20.87;;;10.17;;
50161;SDS011;36061;48.116;11.612;2023-01-23T09:58:12;18.20;;;10.17;;
50161;SDS011;36061;48.116;11.612;2023-01-23T10:00:43;18.93;;;10.63;;
50161;SDS011;36061;48.116;11.612;2023-01-23T10:03:12;21.40;;;10.47;;
50161;SDS011;36061;48.116;11.612;2023-01-23T10:05:42;23.37;;;10.10;;
50161;SDS011;36061;48.116;11.612;2023-01-23T10:08:20;20.30;;;10.50;;
50161;SDS011;36061;48.116;11.612;2023-01-23T10:11:01;18.37;;;10.80;;
50161;SDS011;36061;48.116;11.612;2023-01-23T10:13:34;24.20;;;9.83;;
50161;SDS011;36061;48.116;11.612;2023-01-23T10:16:25;17.77;;;10.00;;
50161;SDS011;36061;48.116;11.612;2023-01-23T10:19:01;19.53;;;10.60;;
50161;SDS011;36061;48.116;11.612;2023-01-23T10:21:38;19.97;;;9.10;;
50161;SDS011;36061;48.116;11.612;2023-01-23T10:24:19;23.37;;;10.57;;
50161;SDS011;36061;48.116;11.612;2023-01-23T10:26:59;19.57;;;10.13;;
50161;SDS011;36061;48.116;11.612;2023-01-23T10:29:41;21.17;;;11.13;;
50161;SDS011;36061;48.116;11.612;2023-01-23T10:32:16;23.40;;;11.63;;
50161;SDS011;36061;48.116;11.612;2023-01-23T10:34:54;18.30;;;10.20;;
50161;SDS011;36061;48.116;11.612;2023-01-23T10:37:32;21.23;;;10.13;;
50161;SDS011;36061;48.116;11.612;2023-01-23T10:40:09;19.67;;;10.57;;
50161;SDS011;36061;48.116;11.612;2023-01-23T10:42:38;19.77;;;9.03;;
50161;SDS011;36061;48.116;11.612;2023-01-23T10:45:06;22.57;;;10.20;;
50161;SDS011;36061;48.116;11.612;2023-01-23T10:47:42;26.30;;;11.50;;
50161;SDS011;36061;48.116;11.612;2023-01-23T10:50:11;25.77;;;11.43;;
50161;SDS011;36061;48.116;11.612;2023-01-23T10:52:39;24.27;;;10.93;;
50161;SDS011;36061;48.116;11.612;2023-01-23T10:57:54;25.50;;;13.00;;
50161;SDS011;36061;48.116;11.612;2023-01-23T11:00:25;26.20;;;11.27;;
50161;SDS011;36061;48.116;11.612;2023-01-23T11:02:59;23.90;;;11.50;;
50161;SDS011;36061;48.116;11.612;2023-01-23T11:05:51;22.93;;;10.97;;
50161;SDS011;36061;48.116;11.612;2023-01-23T11:08:23;25.10;;;12.43;;
50161;SDS011;36061;48.116;11.612;2023-01-23T11:10:53;24.37;;;11.23;;
50161;SDS011;36061;48.116;11.612;2023-01-23T11:13:37;24.47;;;11.10;;
50161;SDS011;36061;48.116;11.612;2023-01-23T11:16:04;25.33;;;12.33;;
50161;SDS011;36061;48.116;11.612;2023-01-23T11:18:32;23.93;;;12.03;;
50161;SDS011;36061;48.116;11.612;2023-01-23T11:21:08;23.70;;;13.07;;
50161;SDS011;36061;48.116;11.612;2023-01-23T11:23:46;23.17;;;11.97;;
50161;SDS011;36061;48.116;11.612;2023-01-23T11:29:00;24.17;;;11.93;;
50161;SDS011;36061;48.116;11.612;2023-01-23T11:31:28;19.87;;;10.80;;
50161;SDS011;36061;48.116;11.612;2023-01-23T11:33:57;25.03;;;11.23;;
50161;SDS011;36061;48.116;11.612;2023-01-23T11:36:35;30.37;;;11.67;;
50161;SDS011;36061;48.116;11.612;2023-01-23T11:39:10;22.83;;;10.77;;
50161;SDS011;36061;48.116;11.612;2023-01-23T11:41:44;23.83;;;12.13;;
50161;SDS011;36061;48.116;11.612;2023-01-23T11:44:13;19.67;;;10.60;;
50161;SDS011;36061;48.116;11.612;2023-01-23T11:46:54;30.13;;;12.83;;
50161;SDS011;36061;48.116;11.612;2023-01-23T11:49:46;26.03;;;11.77;;
50161;SDS011;36061;48.116;11.612;2023-01-23T11:52:27;24.50;;;11.10;;
50161;SDS011;36061;48.116;11.612;2023-01-23T11:55:10;22.93;;;10.87;;
50161;SDS011;36061;48.116;11.612;2023-01-23T11:57:54;23.27;;;11.70;;
50161;SDS011;36061;48.116;11.612;2023-01-23T12:00:32;23.10;;;11.43;;
50161;SDS011;36061;48.116;11.612;2023-01-23T12:09:08;21.40;;;10.80;;
50161;SDS011;36061;48.116;11.612;2023-01-23T12:11:41;22.43;;;11.97;;
50161;SDS011;36061;48.116;11.612;2023-01-23T12:14:20;21.93;;;11.83;;
50161;SDS011;36061;48.116;11.612;2023-01-23T12:16:56;24.77;;;12.10;;
50161;SDS011;36061;48.116;11.612;2023-01-23T12:19:37;23.47;;;11.47;;
50161;SDS011;36061;48.116;11.612;2023-01-23T12:22:17;22.93;;;11.33;;
50161;SDS011;36061;48.116;11.612;2023-01-23T12:24:52;21.43;;;11.50;;
50161;SDS011;36061;48.116;11.612;2023-01-23T12:27:31;22.53;;;11.20;;
50161;SDS011;36061;48.116;11.612;2023-01-23T12:33:06;22.23;;;10.77;;
50161;SDS011;36061;48.116;11.612;2023-01-23T12:35:46;19.30;;;9.33;;
50161;SDS011;36061;48.116;11.612;2023-01-23T12:38:23;19.27;;;11.07;;
50161;SDS011;36061;48.116;11.612;2023-01-23T12:40:58;20.43;;;10.77;;
50161;SDS011;36061;48.116;11.612;2023-01-23T12:43:35;20.97;;;10.27;;
50161;SDS011;36061;48.116;11.612;2023-01-23T12:46:12;20.03;;;10.63;;
50161;SDS011;36061;48.116;11.612;2023-01-23T12:48:45;20.43;;;10.70;;
50161;SDS011;36061;48.116;11.612;2023-01-23T12:51:17;22.97;;;11.73;;
50161;SDS011;36061;48.116;11.612;2023-01-23T12:53:49;20.33;;;10.43;;
50161;SDS011;36061;48.116;11.612;2023-01-23T12:56:19;18.43;;;10.47;;
50161;SDS011;36061;48.116;11.612;2023-01-23T12:58:54;20.90;;;9.93;;
50161;SDS011;36061;48.116;11.612;2023-01-23T13:01:45;19.13;;;9.90;;
50161;SDS011;36061;48.116;11.612;2023-01-23T13:04:35;20.00;;;11.07;;
50161;SDS011;36061;48.116;11.612;2023-01-23T13:07:16;20.50;;;10.00;;
50161;SDS011;36061;48.116;11.612;2023-01-23T13:10:06;20.50;;;10.10;;
50161;SDS011;36061;48.116;11.612;2023-01-23T13:12:45;18.80;;;11.27;;
50161;SDS011;36061;48.116;11.612;2023-01-23T13:15:19;23.67;;;10.90;;
50161;SDS011;36061;48.116;11.612;2023-01-23T13:17:56;20.33;;;11.33;;
50161;SDS011;36061;48.116;11.612;2023-01-23T13:20:27;19.07;;;10.27;;
50161;SDS011;36061;48.116;11.612;2023-01-23T13:23:20;22.10;;;11.20;;
50161;SDS011;36061;48.116;11.612;2023-01-23T13:29:02;18.77;;;10.23;;
50161;SDS011;36061;48.116;11.612;2023-01-23T13:31:36;18.33;;;9.83;;
50161;SDS011;36061;48.116;11.612;2023-01-23T13:40:16;18.07;;;10.93;;
50161;SDS011;36061;48.116;11.612;2023-01-23T13:42:46;18.13;;;10.77;;
50161;SDS011;36061;48.116;11.612;2023-01-23T13:45:17;17.03;;;9.17;;
50161;SDS011;36061;48.116;11.612;2023-01-23T13:47:54;20.80;;;9.83;;
50161;SDS011;36061;48.116;11.612;2023-01-23T13:51:01;22.10;;;11.00;;
50161;SDS011;36061;48.116;11.612;2023-01-23T13:53:41;19.80;;;10.27;;
50161;SDS011;36061;48.116;11.612;2023-01-23T13:56:28;17.40;;;9.47;;
50161;SDS011;36061;48.116;11.612;2023-01-23T13:59:05;19.17;;;9.67;;
50161;SDS011;36061;48.116;11.612;2023-01-23T14:01:42;17.77;;;9.47;;
50161;SDS011;36061;48.116;11.612;2023-01-23T14:04:33;20.60;;;10.43;;
50161;SDS011;36061;48.116;11.612;2023-01-23T14:07:25;18.07;;;10.17;;
50161;SDS011;36061;48.116;11.612;2023-01-23T14:13:03;20.00;;;9.53;;
50161;SDS011;36061;48.116;11.612;2023-01-23T14:15:32;21.77;;;10.80;;
50161;SDS011;36061;48.116;11.612;2023-01-23T14:18:26;18.73;;;10.23;;
50161;SDS011;36061;48.116;11.612;2023-01-23T14:21:00;18.00;;;9.93;;
50161;SDS011;36061;48.116;11.612;2023-01-23T14:23:32;18.20;;;9.63;;
50161;SDS011;36061;48.116;11.612;2023-01-23T14:26:01;21.13;;;10.33;;
50161;SDS011;36061;48.116;11.612;2023-01-23T14:28:30;21.03;;;10.57;;
50161;SDS011;36061;48.116;11.612;2023-01-23T14:30:59;20.60;;;11.30;;
50161;SDS011;36061;48.116;11.612;2023-01-23T14:33:28;15.57;;;8.90;;
50161;SDS011;36061;48.116;11.612;2023-01-23T14:36:06;17.77;;;9.43;;
50161;SDS011;36061;48.116;11.612;2023-01-23T14:38:41;18.60;;;9.63;;
50161;SDS011;36061;48.116;11.612;2023-01-23T14:41:10;15.67;;;9.00;;
50161;SDS011;36061;48.116;11.612;2023-01-23T14:43:37;16.80;;;9.93;;
50161;SDS011;36061;48.116;11.612;2023-01-23T14:46:10;21.60;;;11.13;;
50161;SDS011;36061;48.116;11.612;2023-01-23T14:48:42;16.70;;;9.07;;
50161;SDS011;36061;48.116;11.612;2023-01-23T14:51:15;17.57;;;10.33;;
50161;SDS011;36061;48.116;11.612;2023-01-23T14:53:56;19.27;;;9.33;;
50161;SDS011;36061;48.116;11.612;2023-01-23T14:56:26;17.90;;;9.03;;
50161;SDS011;36061;48.116;11.612;2023-01-23T14:58:56;20.30;;;9.30;;
50161;SDS011;36061;48.116;11.612;2023-01-23T15:01:26;18.20;;;10.13;;
50161;SDS011;36061;48.116;11.612;2023-01-23T15:03:55;18.23;;;10.13;;
50161;SDS011;36061;48.116;11.612;2023-01-23T15:06:24;21.10;;;10.60;;